Аэропорт: Курумоч. Самара

ICAO: UWWW

METAR:
2020-06-04 05:00:00
UWWW 040500Z 11006MPS 9999 SCT026CB 20/13 Q1009 R15/250050 NOSIG RMK QFE745/0994
METAR:
2020-06-04 01:55:00
TAF UWWW 040155Z 0403/0503 10006G13MPS 9999 BKN020 TX23/0411Z TN15/0501Z TEMPO 0403/0416 14009G16MPS 3000 -TSRA SCT011 BKN016CB BECMG 0416/0418 15003G09MPS TEMPO 0418/0503 VRB01MPS 0500 -RA FG VV003